sensor_id;sensor_type;location;lat;lon;timestamp;P1;durP1;ratioP1;P2;durP2;ratioP2
61373;SDS011;47242;48.158;-1.586;2023-03-01T05:30:47;20.40;;;10.18;;
61373;SDS011;47242;48.158;-1.586;2023-03-01T05:33:16;19.90;;;11.40;;
61373;SDS011;47242;48.158;-1.586;2023-03-01T05:35:50;21.48;;;11.73;;
61373;SDS011;47242;48.158;-1.586;2023-03-01T05:38:17;17.55;;;10.43;;
61373;SDS011;47242;48.158;-1.586;2023-03-01T05:40:43;11.57;;;10.10;;
61373;SDS011;47242;48.158;-1.586;2023-03-01T05:43:11;24.63;;;12.98;;
61373;SDS011;47242;48.158;-1.586;2023-03-01T05:45:38;17.55;;;11.50;;
61373;SDS011;47242;48.158;-1.586;2023-03-01T05:48:06;19.00;;;10.63;;
61373;SDS011;47242;48.158;-1.586;2023-03-01T05:50:34;20.08;;;12.45;;
61373;SDS011;47242;48.158;-1.586;2023-03-01T05:53:05;26.10;;;13.98;;
61373;SDS011;47242;48.158;-1.586;2023-03-01T05:55:32;18.70;;;12.93;;
61373;SDS011;47242;48.158;-1.586;2023-03-01T05:58:03;20.10;;;13.50;;
61373;SDS011;47242;48.158;-1.586;2023-03-01T06:00:31;19.70;;;12.70;;
61373;SDS011;47242;48.158;-1.586;2023-03-01T06:02:57;27.40;;;14.52;;
61373;SDS011;47242;48.158;-1.586;2023-03-01T06:05:24;20.83;;;12.40;;
61373;SDS011;47242;48.158;-1.586;2023-03-01T06:07:50;25.17;;;14.63;;
61373;SDS011;47242;48.158;-1.586;2023-03-01T06:10:18;22.00;;;12.35;;
61373;SDS011;47242;48.158;-1.586;2023-03-01T06:12:45;18.55;;;12.65;;
61373;SDS011;47242;48.158;-1.586;2023-03-01T06:15:12;19.05;;;12.20;;
61373;SDS011;47242;48.158;-1.586;2023-03-01T06:17:40;21.23;;;11.50;;
61373;SDS011;47242;48.158;-1.586;2023-03-01T06:20:08;22.05;;;12.40;;
61373;SDS011;47242;48.158;-1.586;2023-03-01T06:22:44;22.55;;;11.27;;
61373;SDS011;47242;48.158;-1.586;2023-03-01T06:25:12;24.42;;;12.63;;
61373;SDS011;47242;48.158;-1.586;2023-03-01T06:27:39;20.02;;;12.98;;
61373;SDS011;47242;48.158;-1.586;2023-03-01T06:30:05;18.58;;;12.68;;
61373;SDS011;47242;48.158;-1.586;2023-03-01T06:32:35;21.52;;;13.40;;
61373;SDS011;47242;48.158;-1.586;2023-03-01T06:35:02;21.08;;;10.73;;
61373;SDS011;47242;48.158;-1.586;2023-03-01T06:37:28;21.83;;;12.77;;
61373;SDS011;47242;48.158;-1.586;2023-03-01T06:39:54;19.92;;;12.02;;
61373;SDS011;47242;48.158;-1.586;2023-03-01T06:42:19;18.90;;;12.32;;
61373;SDS011;47242;48.158;-1.586;2023-03-01T06:44:45;23.20;;;13.45;;
61373;SDS011;47242;48.158;-1.586;2023-03-01T06:47:13;23.08;;;13.88;;
61373;SDS011;47242;48.158;-1.586;2023-03-01T06:49:39;18.83;;;11.73;;
61373;SDS011;47242;48.158;-1.586;2023-03-01T06:52:04;23.63;;;12.40;;
61373;SDS011;47242;48.158;-1.586;2023-03-01T06:54:30;20.17;;;12.52;;
61373;SDS011;47242;48.158;-1.586;2023-03-01T06:56:55;21.20;;;14.40;;
61373;SDS011;47242;48.158;-1.586;2023-03-01T06:59:21;17.67;;;11.88;;
61373;SDS011;47242;48.158;-1.586;2023-03-01T07:01:47;20.45;;;13.00;;
61373;SDS011;47242;48.158;-1.586;2023-03-01T07:04:12;22.80;;;13.40;;
61373;SDS011;47242;48.158;-1.586;2023-03-01T07:06:38;20.67;;;12.15;;
61373;SDS011;47242;48.158;-1.586;2023-03-01T07:09:04;19.77;;;11.98;;
61373;SDS011;47242;48.158;-1.586;2023-03-01T07:11:30;19.70;;;11.48;;
61373;SDS011;47242;48.158;-1.586;2023-03-01T07:13:56;15.55;;;9.50;;
61373;SDS011;47242;48.158;-1.586;2023-03-01T07:16:23;22.13;;;14.75;;
61373;SDS011;47242;48.158;-1.586;2023-03-01T07:18:48;19.88;;;10.65;;
61373;SDS011;47242;48.158;-1.586;2023-03-01T07:21:14;23.48;;;14.05;;
61373;SDS011;47242;48.158;-1.586;2023-03-01T07:23:41;19.10;;;12.85;;
61373;SDS011;47242;48.158;-1.586;2023-03-01T07:26:07;22.73;;;13.43;;
61373;SDS011;47242;48.158;-1.586;2023-03-01T07:28:32;23.50;;;14.93;;
61373;SDS011;47242;48.158;-1.586;2023-03-01T07:31:03;17.05;;;12.15;;
61373;SDS011;47242;48.158;-1.586;2023-03-01T07:33:29;19.35;;;10.25;;
61373;SDS011;47242;48.158;-1.586;2023-03-01T07:35:57;16.75;;;11.20;;
61373;SDS011;47242;48.158;-1.586;2023-03-01T07:38:29;15.05;;;10.32;;
61373;SDS011;47242;48.158;-1.586;2023-03-01T07:41:02;13.48;;;10.25;;
61373;SDS011;47242;48.158;-1.586;2023-03-01T07:43:29;16.20;;;9.80;;
61373;SDS011;47242;48.158;-1.586;2023-03-01T07:45:54;15.38;;;11.68;;
61373;SDS011;47242;48.158;-1.586;2023-03-01T07:48:24;15.77;;;9.60;;
61373;SDS011;47242;48.158;-1.586;2023-03-01T07:50:50;12.18;;;9.73;;
61373;SDS011;47242;48.158;-1.586;2023-03-01T07:53:15;14.20;;;11.07;;
61373;SDS011;47242;48.158;-1.586;2023-03-01T07:55:41;13.55;;;10.15;;
61373;SDS011;47242;48.158;-1.586;2023-03-01T07:58:06;16.25;;;12.05;;
61373;SDS011;47242;48.158;-1.586;2023-03-01T08:00:32;21.90;;;13.38;;
61373;SDS011;47242;48.158;-1.586;2023-03-01T08:02:58;19.38;;;13.85;;
61373;SDS011;47242;48.158;-1.586;2023-03-01T08:05:28;23.13;;;14.60;;
61373;SDS011;47242;48.158;-1.586;2023-03-01T08:07:54;24.83;;;15.05;;
61373;SDS011;47242;48.158;-1.586;2023-03-01T08:10:20;15.95;;;12.10;;
61373;SDS011;47242;48.158;-1.586;2023-03-01T08:12:45;16.40;;;12.43;;
61373;SDS011;47242;48.158;-1.586;2023-03-01T08:15:11;21.27;;;10.85;;
61373;SDS011;47242;48.158;-1.586;2023-03-01T08:17:37;20.92;;;14.30;;
61373;SDS011;47242;48.158;-1.586;2023-03-01T08:20:02;17.77;;;11.70;;
61373;SDS011;47242;48.158;-1.586;2023-03-01T08:22:31;19.13;;;13.68;;
61373;SDS011;47242;48.158;-1.586;2023-03-01T08:24:56;15.90;;;11.60;;
61373;SDS011;47242;48.158;-1.586;2023-03-01T08:27:22;21.20;;;13.00;;
61373;SDS011;47242;48.158;-1.586;2023-03-01T08:29:48;16.08;;;12.75;;
61373;SDS011;47242;48.158;-1.586;2023-03-01T08:32:13;14.00;;;11.70;;
61373;SDS011;47242;48.158;-1.586;2023-03-01T08:34:39;18.70;;;11.35;;
61373;SDS011;47242;48.158;-1.586;2023-03-01T08:37:04;17.98;;;13.07;;
61373;SDS011;47242;48.158;-1.586;2023-03-01T08:39:30;19.58;;;12.02;;
61373;SDS011;47242;48.158;-1.586;2023-03-01T08:41:56;23.67;;;14.35;;
61373;SDS011;47242;48.158;-1.586;2023-03-01T08:44:22;19.63;;;13.48;;
61373;SDS011;47242;48.158;-1.586;2023-03-01T08:46:47;23.73;;;15.55;;
61373;SDS011;47242;48.158;-1.586;2023-03-01T08:49:18;18.25;;;12.98;;
61373;SDS011;47242;48.158;-1.586;2023-03-01T08:51:45;16.58;;;11.70;;
61373;SDS011;47242;48.158;-1.586;2023-03-01T08:54:16;19.80;;;12.30;;
61373;SDS011;47242;48.158;-1.586;2023-03-01T08:56:44;20.10;;;15.52;;
61373;SDS011;47242;48.158;-1.586;2023-03-01T08:59:10;18.95;;;14.05;;
61373;SDS011;47242;48.158;-1.586;2023-03-01T09:01:37;14.30;;;10.57;;
61373;SDS011;47242;48.158;-1.586;2023-03-01T09:04:03;14.80;;;12.27;;
61373;SDS011;47242;48.158;-1.586;2023-03-01T09:06:32;14.98;;;10.98;;
61373;SDS011;47242;48.158;-1.586;2023-03-01T09:08:58;14.93;;;10.70;;
61373;SDS011;47242;48.158;-1.586;2023-03-01T09:11:24;16.35;;;11.40;;
61373;SDS011;47242;48.158;-1.586;2023-03-01T09:13:50;15.68;;;12.27;;
61373;SDS011;47242;48.158;-1.586;2023-03-01T09:16:17;15.65;;;11.75;;
61373;SDS011;47242;48.158;-1.586;2023-03-01T09:18:44;14.23;;;11.50;;
61373;SDS011;47242;48.158;-1.586;2023-03-01T09:21:14;14.90;;;10.80;;
61373;SDS011;47242;48.158;-1.586;2023-03-01T09:23:42;16.80;;;12.40;;
61373;SDS011;47242;48.158;-1.586;2023-03-01T09:26:11;12.52;;;10.25;;
61373;SDS011;47242;48.158;-1.586;2023-03-01T09:28:38;16.90;;;11.38;;
61373;SDS011;47242;48.158;-1.586;2023-03-01T09:31:06;12.20;;;10.55;;
61373;SDS011;47242;48.158;-1.586;2023-03-01T09:33:32;19.42;;;15.15;;
61373;SDS011;47242;48.158;-1.586;2023-03-01T09:35:58;14.45;;;11.93;;
61373;SDS011;47242;48.158;-1.586;2023-03-01T09:38:25;11.70;;;10.30;;
61373;SDS011;47242;48.158;-1.586;2023-03-01T09:40:51;13.13;;;10.55;;
61373;SDS011;47242;48.158;-1.586;2023-03-01T09:45:55;12.48;;;10.10;;
61373;SDS011;47242;48.158;-1.586;2023-03-01T09:48:25;11.68;;;9.63;;
61373;SDS011;47242;48.158;-1.586;2023-03-01T09:53:22;13.80;;;10.50;;
61373;SDS011;47242;48.158;-1.586;2023-03-01T10:01:51;11.73;;;9.33;;
61373;SDS011;47242;48.158;-1.586;2023-03-01T10:04:36;13.05;;;10.45;;
61373;SDS011;47242;48.158;-1.586;2023-03-01T10:09:55;18.80;;;10.63;;
61373;SDS011;47242;48.158;-1.586;2023-03-01T10:12:23;15.18;;;11.32;;
61373;SDS011;47242;48.158;-1.586;2023-03-01T10:15:05;14.35;;;9.82;;
61373;SDS011;47242;48.158;-1.586;2023-03-01T10:22:42;13.10;;;9.73;;
61373;SDS011;47242;48.158;-1.586;2023-03-01T10:25:12;15.30;;;10.07;;
61373;SDS011;47242;48.158;-1.586;2023-03-01T10:27:53;14.88;;;10.65;;
61373;SDS011;47242;48.158;-1.586;2023-03-01T10:30:35;15.98;;;10.55;;
61373;SDS011;47242;48.158;-1.586;2023-03-01T10:33:08;19.23;;;12.63;;
61373;SDS011;47242;48.158;-1.586;2023-03-01T10:35:42;20.83;;;11.50;;
61373;SDS011;47242;48.158;-1.586;2023-03-01T10:38:08;19.23;;;9.73;;
61373;SDS011;47242;48.158;-1.586;2023-03-01T10:40:36;13.95;;;10.35;;
61373;SDS011;47242;48.158;-1.586;2023-03-01T10:43:23;13.20;;;9.45;;
61373;SDS011;47242;48.158;-1.586;2023-03-01T10:45:50;17.77;;;9.50;;
61373;SDS011;47242;48.158;-1.586;2023-03-01T10:48:17;20.42;;;10.95;;
61373;SDS011;47242;48.158;-1.586;2023-03-01T10:50:49;18.23;;;10.77;;
61373;SDS011;47242;48.158;-1.586;2023-03-01T10:58:31;14.73;;;9.00;;
61373;SDS011;47242;48.158;-1.586;2023-03-01T11:01:01;19.88;;;10.98;;
61373;SDS011;47242;48.158;-1.586;2023-03-01T11:03:30;17.27;;;10.80;;
61373;SDS011;47242;48.158;-1.586;2023-03-01T11:08:43;15.80;;;9.25;;
61373;SDS011;47242;48.158;-1.586;2023-03-01T11:11:24;17.42;;;11.27;;
61373;SDS011;47242;48.158;-1.586;2023-03-01T11:14:03;17.55;;;11.27;;
61373;SDS011;47242;48.158;-1.586;2023-03-01T11:16:37;22.00;;;11.63;;
61373;SDS011;47242;48.158;-1.586;2023-03-01T11:21:34;19.38;;;11.65;;
61373;SDS011;47242;48.158;-1.586;2023-03-01T11:24:05;13.77;;;9.57;;
61373;SDS011;47242;48.158;-1.586;2023-03-01T11:26:36;17.48;;;10.88;;
61373;SDS011;47242;48.158;-1.586;2023-03-01T11:29:44;19.60;;;10.90;;
61373;SDS011;47242;48.158;-1.586;2023-03-01T11:32:05;17.92;;;11.20;;
61373;SDS011;47242;48.158;-1.586;2023-03-01T11:34:43;16.88;;;11.55;;
61373;SDS011;47242;48.158;-1.586;2023-03-01T11:37:41;18.38;;;10.55;;
61373;SDS011;47242;48.158;-1.586;2023-03-01T11:40:21;17.85;;;10.55;;
61373;SDS011;47242;48.158;-1.586;2023-03-01T11:42:54;14.05;;;9.65;;
61373;SDS011;47242;48.158;-1.586;2023-03-01T11:45:47;12.15;;;9.02;;
61373;SDS011;47242;48.158;-1.586;2023-03-01T11:51:37;17.55;;;10.77;;
61373;SDS011;47242;48.158;-1.586;2023-03-01T11:59:56;17.67;;;9.93;;
61373;SDS011;47242;48.158;-1.586;2023-03-01T12:02:44;15.23;;;10.00;;
61373;SDS011;47242;48.158;-1.586;2023-03-01T12:08:04;19.67;;;10.48;;
61373;SDS011;47242;48.158;-1.586;2023-03-01T12:11:01;20.13;;;13.30;;
61373;SDS011;47242;48.158;-1.586;2023-03-01T12:19:15;17.90;;;11.55;;
61373;SDS011;47242;48.158;-1.586;2023-03-01T12:24:52;15.77;;;10.38;;
61373;SDS011;47242;48.158;-1.586;2023-03-01T12:27:47;14.90;;;9.30;;
61373;SDS011;47242;48.158;-1.586;2023-03-01T12:33:23;10.88;;;7.38;;
61373;SDS011;47242;48.158;-1.586;2023-03-01T12:38:44;15.13;;;9.85;;
61373;SDS011;47242;48.158;-1.586;2023-03-01T12:41:40;14.45;;;9.27;;
61373;SDS011;47242;48.158;-1.586;2023-03-01T12:44:15;19.10;;;10.10;;
61373;SDS011;47242;48.158;-1.586;2023-03-01T12:49:51;14.00;;;8.63;;
61373;SDS011;47242;48.158;-1.586;2023-03-01T12:55:02;13.50;;;9.40;;
61373;SDS011;47242;48.158;-1.586;2023-03-01T12:57:55;10.18;;;6.70;;
61373;SDS011;47242;48.158;-1.586;2023-03-01T13:01:04;12.10;;;8.00;;
61373;SDS011;47242;48.158;-1.586;2023-03-01T13:09:05;10.13;;;7.63;;
61373;SDS011;47242;48.158;-1.586;2023-03-01T13:11:33;11.77;;;8.18;;
61373;SDS011;47242;48.158;-1.586;2023-03-01T13:14:34;10.77;;;6.72;;
61373;SDS011;47242;48.158;-1.586;2023-03-01T13:17:01;14.18;;;8.32;;
61373;SDS011;47242;48.158;-1.586;2023-03-01T13:19:27;10.20;;;6.57;;
61373;SDS011;47242;48.158;-1.586;2023-03-01T13:21:55;13.35;;;7.15;;
61373;SDS011;47242;48.158;-1.586;2023-03-01T13:24:28;10.30;;;6.95;;
61373;SDS011;47242;48.158;-1.586;2023-03-01T13:34:51;12.80;;;8.50;;
61373;SDS011;47242;48.158;-1.586;2023-03-01T13:37:26;11.38;;;6.53;;
61373;SDS011;47242;48.158;-1.586;2023-03-01T13:40:02;11.75;;;7.25;;
61373;SDS011;47242;48.158;-1.586;2023-03-01T13:42:35;9.73;;;6.85;;
61373;SDS011;47242;48.158;-1.586;2023-03-01T13:47:54;11.80;;;7.05;;
61373;SDS011;47242;48.158;-1.586;2023-03-01T13:50:32;9.45;;;6.03;;
61373;SDS011;47242;48.158;-1.586;2023-03-01T13:53:04;7.68;;;4.88;;
61373;SDS011;47242;48.158;-1.586;2023-03-01T13:55:37;9.63;;;6.60;;
61373;SDS011;47242;48.158;-1.586;2023-03-01T13:58:43;10.13;;;6.10;;
61373;SDS011;47242;48.158;-1.586;2023-03-01T14:01:29;9.93;;;5.72;;
61373;SDS011;47242;48.158;-1.586;2023-03-01T14:03:56;13.10;;;5.57;;
61373;SDS011;47242;48.158;-1.586;2023-03-01T14:06:24;11.40;;;5.57;;
61373;SDS011;47242;48.158;-1.586;2023-03-01T14:14:53;8.93;;;6.03;;
61373;SDS011;47242;48.158;-1.586;2023-03-01T14:17:32;8.70;;;5.35;;
61373;SDS011;47242;48.158;-1.586;2023-03-01T14:20:25;8.75;;;5.63;;
61373;SDS011;47242;48.158;-1.586;2023-03-01T14:23:07;9.43;;;6.43;;
61373;SDS011;47242;48.158;-1.586;2023-03-01T14:25:51;9.48;;;6.10;;
61373;SDS011;47242;48.158;-1.586;2023-03-01T14:28:20;11.65;;;5.45;;
61373;SDS011;47242;48.158;-1.586;2023-03-01T14:30:52;7.50;;;5.68;;
61373;SDS011;47242;48.158;-1.586;2023-03-01T14:33:26;10.35;;;5.72;;
61373;SDS011;47242;48.158;-1.586;2023-03-01T14:38:37;10.67;;;5.60;;
61373;SDS011;47242;48.158;-1.586;2023-03-01T14:43:41;11.73;;;6.20;;
61373;SDS011;47242;48.158;-1.586;2023-03-01T14:46:45;11.40;;;6.32;;
61373;SDS011;47242;48.158;-1.586;2023-03-01T14:49:22;11.73;;;7.13;;
61373;SDS011;47242;48.158;-1.586;2023-03-01T14:52:01;10.75;;;7.65;;
61373;SDS011;47242;48.158;-1.586;2023-03-01T14:54:42;9.18;;;6.10;;
61373;SDS011;47242;48.158;-1.586;2023-03-01T14:57:18;10.68;;;7.18;;
61373;SDS011;47242;48.158;-1.586;2023-03-01T14:59:49;12.60;;;8.07;;
61373;SDS011;47242;48.158;-1.586;2023-03-01T15:02:18;10.82;;;8.27;;
61373;SDS011;47242;48.158;-1.586;2023-03-01T15:04:46;11.60;;;7.43;;
61373;SDS011;47242;48.158;-1.586;2023-03-01T15:07:15;17.77;;;7.93;;
61373;SDS011;47242;48.158;-1.586;2023-03-01T15:09:41;16.25;;;9.85;;
61373;SDS011;47242;48.158;-1.586;2023-03-01T15:14:52;13.55;;;8.50;;
61373;SDS011;47242;48.158;-1.586;2023-03-01T15:19:53;14.50;;;8.00;;
61373;SDS011;47242;48.158;-1.586;2023-03-01T15:22:18;12.50;;;8.35;;
61373;SDS011;47242;48.158;-1.586;2023-03-01T15:24:46;12.55;;;8.40;;
61373;SDS011;47242;48.158;-1.586;2023-03-01T15:27:18;12.55;;;8.77;;
61373;SDS011;47242;48.158;-1.586;2023-03-01T15:29:57;16.13;;;9.90;;
61373;SDS011;47242;48.158;-1.586;2023-03-01T15:32:32;16.42;;;9.00;;
61373;SDS011;47242;48.158;-1.586;2023-03-01T15:35:00;14.90;;;8.73;;
61373;SDS011;47242;48.158;-1.586;2023-03-01T15:37:47;18.10;;;9.95;;
61373;SDS011;47242;48.158;-1.586;2023-03-01T15:40:21;16.98;;;10.02;;
61373;SDS011;47242;48.158;-1.586;2023-03-01T15:43:01;22.73;;;11.50;;
61373;SDS011;47242;48.158;-1.586;2023-03-01T15:45:28;21.70;;;11.48;;
61373;SDS011;47242;48.158;-1.586;2023-03-01T15:48:00;18.55;;;12.13;;
61373;SDS011;47242;48.158;-1.586;2023-03-01T15:50:38;13.93;;;10.68;;
61373;SDS011;47242;48.158;-1.586;2023-03-01T15:53:06;19.77;;;12.88;;
61373;SDS011;47242;48.158;-1.586;2023-03-01T15:58:17;18.05;;;11.95;;
61373;SDS011;47242;48.158;-1.586;2023-03-01T16:00:44;18.00;;;11.05;;
61373;SDS011;47242;48.158;-1.586;2023-03-01T16:03:13;17.92;;;10.77;;
61373;SDS011;47242;48.158;-1.586;2023-03-01T16:05:39;21.38;;;10.40;;
61373;SDS011;47242;48.158;-1.586;2023-03-01T16:08:05;17.35;;;11.82;;
61373;SDS011;47242;48.158;-1.586;2023-03-01T16:10:32;16.42;;;10.65;;
61373;SDS011;47242;48.158;-1.586;2023-03-01T16:12:58;19.08;;;11.45;;
61373;SDS011;47242;48.158;-1.586;2023-03-01T16:15:32;22.35;;;11.60;;
61373;SDS011;47242;48.158;-1.586;2023-03-01T16:18:01;14.95;;;11.45;;
61373;SDS011;47242;48.158;-1.586;2023-03-01T16:20:28;15.23;;;9.82;;
61373;SDS011;47242;48.158;-1.586;2023-03-01T16:22:54;15.57;;;9.57;;
61373;SDS011;47242;48.158;-1.586;2023-03-01T16:25:23;19.60;;;10.52;;
61373;SDS011;47242;48.158;-1.586;2023-03-01T16:27:49;13.38;;;8.82;;
61373;SDS011;47242;48.158;-1.586;2023-03-01T16:30:16;16.23;;;10.68;;
61373;SDS011;47242;48.158;-1.586;2023-03-01T16:32:47;16.38;;;9.50;;
61373;SDS011;47242;48.158;-1.586;2023-03-01T16:35:15;16.50;;;9.35;;
61373;SDS011;47242;48.158;-1.586;2023-03-01T16:37:42;15.23;;;10.18;;
61373;SDS011;47242;48.158;-1.586;2023-03-01T16:42:44;14.45;;;8.57;;
61373;SDS011;47242;48.158;-1.586;2023-03-01T16:45:10;16.08;;;9.10;;
61373;SDS011;47242;48.158;-1.586;2023-03-01T16:47:36;13.70;;;8.80;;
61373;SDS011;47242;48.158;-1.586;2023-03-01T16:50:02;14.07;;;9.63;;
61373;SDS011;47242;48.158;-1.586;2023-03-01T16:52:27;12.80;;;8.50;;
61373;SDS011;47242;48.158;-1.586;2023-03-01T16:54:53;14.73;;;8.20;;
61373;SDS011;47242;48.158;-1.586;2023-03-01T16:57:19;16.05;;;8.85;;
61373;SDS011;47242;48.158;-1.586;2023-03-01T16:59:45;15.30;;;10.38;;
61373;SDS011;47242;48.158;-1.586;2023-03-01T17:02:14;12.93;;;8.05;;
61373;SDS011;47242;48.158;-1.586;2023-03-01T17:04:44;14.65;;;9.27;;
61373;SDS011;47242;48.158;-1.586;2023-03-01T17:07:16;15.30;;;10.27;;
61373;SDS011;47242;48.158;-1.586;2023-03-01T17:09:41;15.35;;;9.70;;
61373;SDS011;47242;48.158;-1.586;2023-03-01T17:12:07;12.85;;;8.50;;
61373;SDS011;47242;48.158;-1.586;2023-03-01T17:14:33;14.15;;;9.55;;
61373;SDS011;47242;48.158;-1.586;2023-03-01T17:16:59;14.48;;;9.23;;
61373;SDS011;47242;48.158;-1.586;2023-03-01T17:19:26;21.00;;;11.23;;
61373;SDS011;47242;48.158;-1.586;2023-03-01T17:21:52;15.52;;;9.70;;
61373;SDS011;47242;48.158;-1.586;2023-03-01T17:24:18;12.93;;;8.95;;
61373;SDS011;47242;48.158;-1.586;2023-03-01T17:26:43;16.42;;;10.68;;
61373;SDS011;47242;48.158;-1.586;2023-03-01T17:29:09;17.35;;;8.82;;
61373;SDS011;47242;48.158;-1.586;2023-03-01T17:31:36;11.82;;;8.80;;
61373;SDS011;47242;48.158;-1.586;2023-03-01T17:34:01;18.33;;;10.88;;
61373;SDS011;47242;48.158;-1.586;2023-03-01T17:36:27;15.15;;;7.90;;
61373;SDS011;47242;48.158;-1.586;2023-03-01T17:38:52;17.17;;;9.25;;
61373;SDS011;47242;48.158;-1.586;2023-03-01T17:41:18;15.30;;;9.02;;
61373;SDS011;47242;48.158;-1.586;2023-03-01T17:43:45;12.57;;;8.27;;
61373;SDS011;47242;48.158;-1.586;2023-03-01T17:46:12;17.52;;;9.82;;
61373;SDS011;47242;48.158;-1.586;2023-03-01T17:48:38;14.48;;;9.07;;
61373;SDS011;47242;48.158;-1.586;2023-03-01T17:51:07;15.10;;;9.18;;
61373;SDS011;47242;48.158;-1.586;2023-03-01T17:53:35;12.32;;;7.82;;
61373;SDS011;47242;48.158;-1.586;2023-03-01T17:56:02;13.35;;;8.52;;
61373;SDS011;47242;48.158;-1.586;2023-03-01T17:58:29;10.15;;;6.63;;
61373;SDS011;47242;48.158;-1.586;2023-03-01T18:00:55;17.10;;;8.93;;
61373;SDS011;47242;48.158;-1.586;2023-03-01T18:03:31;14.38;;;8.80;;
61373;SDS011;47242;48.158;-1.586;2023-03-01T18:05:57;15.40;;;9.57;;
61373;SDS011;47242;48.158;-1.586;2023-03-01T18:08:23;17.27;;;9.45;;
61373;SDS011;47242;48.158;-1.586;2023-03-01T18:10:48;14.65;;;8.07;;
61373;SDS011;47242;48.158;-1.586;2023-03-01T18:13:21;14.48;;;7.68;;
61373;SDS011;47242;48.158;-1.586;2023-03-01T18:15:47;14.20;;;8.52;;
61373;SDS011;47242;48.158;-1.586;2023-03-01T18:18:13;12.60;;;8.57;;
61373;SDS011;47242;48.158;-1.586;2023-03-01T18:20:38;14.02;;;8.55;;
61373;SDS011;47242;48.158;-1.586;2023-03-01T18:23:07;12.60;;;8.90;;
61373;SDS011;47242;48.158;-1.586;2023-03-01T18:25:32;15.93;;;8.18;;
61373;SDS011;47242;48.158;-1.586;2023-03-01T18:27:58;17.98;;;9.38;;
61373;SDS011;47242;48.158;-1.586;2023-03-01T18:30:25;22.08;;;9.10;;
61373;SDS011;47242;48.158;-1.586;2023-03-01T18:32:51;20.42;;;9.77;;
61373;SDS011;47242;48.158;-1.586;2023-03-01T18:35:20;16.83;;;9.20;;
61373;SDS011;47242;48.158;-1.586;2023-03-01T18:37:47;16.65;;;9.55;;
61373;SDS011;47242;48.158;-1.586;2023-03-01T18:40:13;14.40;;;8.70;;
61373;SDS011;47242;48.158;-1.586;2023-03-01T18:42:39;15.20;;;8.23;;
61373;SDS011;47242;48.158;-1.586;2023-03-01T18:45:05;15.98;;;8.80;;
61373;SDS011;47242;48.158;-1.586;2023-03-01T18:47:31;15.02;;;8.38;;
61373;SDS011;47242;48.158;-1.586;2023-03-01T18:49:57;13.73;;;8.00;;
61373;SDS011;47242;48.158;-1.586;2023-03-01T18:52:22;17.15;;;9.45;;
61373;SDS011;47242;48.158;-1.586;2023-03-01T18:54:48;17.63;;;10.23;;
61373;SDS011;47242;48.158;-1.586;2023-03-01T18:57:14;15.45;;;10.50;;
61373;SDS011;47242;48.158;-1.586;2023-03-01T18:59:39;18.17;;;10.30;;
61373;SDS011;47242;48.158;-1.586;2023-03-01T19:02:05;15.57;;;8.93;;
61373;SDS011;47242;48.158;-1.586;2023-03-01T19:04:31;18.15;;;10.32;;
61373;SDS011;47242;48.158;-1.586;2023-03-01T19:06:56;27.40;;;13.93;;
61373;SDS011;47242;48.158;-1.586;2023-03-01T19:09:22;28.55;;;11.98;;
61373;SDS011;47242;48.158;-1.586;2023-03-01T19:11:47;23.92;;;11.90;;
61373;SDS011;47242;48.158;-1.586;2023-03-01T19:14:13;22.30;;;11.10;;
61373;SDS011;47242;48.158;-1.586;2023-03-01T19:16:39;16.10;;;10.10;;
61373;SDS011;47242;48.158;-1.586;2023-03-01T19:19:04;18.67;;;10.35;;
61373;SDS011;47242;48.158;-1.586;2023-03-01T19:21:32;15.60;;;9.02;;
61373;SDS011;47242;48.158;-1.586;2023-03-01T19:23:58;21.58;;;10.63;;
61373;SDS011;47242;48.158;-1.586;2023-03-01T19:26:26;16.88;;;11.13;;
61373;SDS011;47242;48.158;-1.586;2023-03-01T19:28:53;15.85;;;9.05;;
61373;SDS011;47242;48.158;-1.586;2023-03-01T19:31:21;19.35;;;11.10;;
61373;SDS011;47242;48.158;-1.586;2023-03-01T19:33:49;18.73;;;10.27;;
61373;SDS011;47242;48.158;-1.586;2023-03-01T19:36:15;17.15;;;11.15;;
61373;SDS011;47242;48.158;-1.586;2023-03-01T19:38:42;17.65;;;9.82;;
61373;SDS011;47242;48.158;-1.586;2023-03-01T19:41:08;17.75;;;9.60;;
61373;SDS011;47242;48.158;-1.586;2023-03-01T19:43:36;20.30;;;10.05;;
61373;SDS011;47242;48.158;-1.586;2023-03-01T19:46:01;21.58;;;9.98;;
61373;SDS011;47242;48.158;-1.586;2023-03-01T19:48:28;20.10;;;9.68;;
61373;SDS011;47242;48.158;-1.586;2023-03-01T19:50:54;17.88;;;11.50;;
61373;SDS011;47242;48.158;-1.586;2023-03-01T19:53:20;20.48;;;10.35;;
61373;SDS011;47242;48.158;-1.586;2023-03-01T19:55:46;18.63;;;10.75;;
61373;SDS011;47242;48.158;-1.586;2023-03-01T19:58:12;16.00;;;10.95;;
61373;SDS011;47242;48.158;-1.586;2023-03-01T20:00:38;18.17;;;11.00;;
61373;SDS011;47242;48.158;-1.586;2023-03-01T20:03:04;15.93;;;11.50;;
61373;SDS011;47242;48.158;-1.586;2023-03-01T20:05:34;16.05;;;10.88;;
61373;SDS011;47242;48.158;-1.586;2023-03-01T20:08:02;15.77;;;9.30;;
61373;SDS011;47242;48.158;-1.586;2023-03-01T20:10:29;14.70;;;10.00;;
61373;SDS011;47242;48.158;-1.586;2023-03-01T20:12:58;24.92;;;11.93;;
61373;SDS011;47242;48.158;-1.586;2023-03-01T20:15:26;21.70;;;11.93;;
61373;SDS011;47242;48.158;-1.586;2023-03-01T20:17:52;14.82;;;10.60;;
61373;SDS011;47242;48.158;-1.586;2023-03-01T20:20:18;15.07;;;11.15;;
61373;SDS011;47242;48.158;-1.586;2023-03-01T20:22:43;21.15;;;11.65;;
61373;SDS011;47242;48.158;-1.586;2023-03-01T20:25:09;22.40;;;12.13;;
61373;SDS011;47242;48.158;-1.586;2023-03-01T20:27:35;22.77;;;10.52;;
61373;SDS011;47242;48.158;-1.586;2023-03-01T20:30:01;25.73;;;11.15;;
61373;SDS011;47242;48.158;-1.586;2023-03-01T20:32:27;21.02;;;10.98;;
61373;SDS011;47242;48.158;-1.586;2023-03-01T20:34:54;21.67;;;12.13;;
61373;SDS011;47242;48.158;-1.586;2023-03-01T20:37:20;25.17;;;11.70;;
61373;SDS011;47242;48.158;-1.586;2023-03-01T20:39:48;22.65;;;11.43;;
61373;SDS011;47242;48.158;-1.586;2023-03-01T20:42:14;18.85;;;10.70;;
61373;SDS011;47242;48.158;-1.586;2023-03-01T20:44:40;19.73;;;10.80;;
61373;SDS011;47242;48.158;-1.586;2023-03-01T20:47:11;23.52;;;11.38;;
61373;SDS011;47242;48.158;-1.586;2023-03-01T20:49:38;26.67;;;11.25;;
61373;SDS011;47242;48.158;-1.586;2023-03-01T20:52:04;17.70;;;11.18;;
61373;SDS011;47242;48.158;-1.586;2023-03-01T20:54:30;16.00;;;9.35;;
61373;SDS011;47242;48.158;-1.586;2023-03-01T20:56:56;15.77;;;9.95;;
61373;SDS011;47242;48.158;-1.586;2023-03-01T20:59:22;23.45;;;11.40;;
61373;SDS011;47242;48.158;-1.586;2023-03-01T21:01:48;16.83;;;9.30;;
61373;SDS011;47242;48.158;-1.586;2023-03-01T21:04:14;16.85;;;9.50;;
61373;SDS011;47242;48.158;-1.586;2023-03-01T21:06:41;24.27;;;9.90;;
61373;SDS011;47242;48.158;-1.586;2023-03-01T21:09:07;18.00;;;9.82;;
61373;SDS011;47242;48.158;-1.586;2023-03-01T21:11:33;17.25;;;10.40;;
61373;SDS011;47242;48.158;-1.586;2023-03-01T21:13:59;19.55;;;10.07;;
61373;SDS011;47242;48.158;-1.586;2023-03-01T21:16:26;15.57;;;9.70;;
61373;SDS011;47242;48.158;-1.586;2023-03-01T21:18:52;14.43;;;8.70;;
61373;SDS011;47242;48.158;-1.586;2023-03-01T21:21:19;13.65;;;9.57;;
61373;SDS011;47242;48.158;-1.586;2023-03-01T21:23:46;16.52;;;9.30;;
61373;SDS011;47242;48.158;-1.586;2023-03-01T21:26:16;16.38;;;8.98;;
61373;SDS011;47242;48.158;-1.586;2023-03-01T21:28:46;18.63;;;10.43;;
61373;SDS011;47242;48.158;-1.586;2023-03-01T21:31:16;16.05;;;9.50;;
61373;SDS011;47242;48.158;-1.586;2023-03-01T21:33:48;15.25;;;10.10;;
61373;SDS011;47242;48.158;-1.586;2023-03-01T21:36:16;17.17;;;10.98;;